sensor_id;sensor_type;location;lat;lon;timestamp;P1;durP1;ratioP1;P2;durP2;ratioP2
21494;SDS011;10909;53.590;10.054;2023-04-12T00:00:22;4.73;;;2.73;;
21494;SDS011;10909;53.590;10.054;2023-04-12T00:02:48;3.20;;;2.00;;
21494;SDS011;10909;53.590;10.054;2023-04-12T00:05:18;3.33;;;2.13;;
21494;SDS011;10909;53.590;10.054;2023-04-12T00:07:50;4.63;;;2.03;;
21494;SDS011;10909;53.590;10.054;2023-04-12T00:10:17;5.33;;;2.10;;
21494;SDS011;10909;53.590;10.054;2023-04-12T00:12:43;3.30;;;2.33;;
21494;SDS011;10909;53.590;10.054;2023-04-12T00:15:10;2.50;;;2.30;;
21494;SDS011;10909;53.590;10.054;2023-04-12T00:17:36;4.50;;;2.17;;
21494;SDS011;10909;53.590;10.054;2023-04-12T00:20:02;3.20;;;2.13;;
21494;SDS011;10909;53.590;10.054;2023-04-12T00:22:36;4.33;;;2.20;;
21494;SDS011;10909;53.590;10.054;2023-04-12T00:25:03;3.20;;;2.33;;
21494;SDS011;10909;53.590;10.054;2023-04-12T00:27:29;3.00;;;2.30;;
21494;SDS011;10909;53.590;10.054;2023-04-12T00:29:55;4.80;;;2.13;;
21494;SDS011;10909;53.590;10.054;2023-04-12T00:32:21;2.97;;;2.10;;
21494;SDS011;10909;53.590;10.054;2023-04-12T00:34:46;2.53;;;2.10;;
21494;SDS011;10909;53.590;10.054;2023-04-12T00:37:12;4.57;;;2.07;;
21494;SDS011;10909;53.590;10.054;2023-04-12T00:39:38;2.97;;;2.13;;
21494;SDS011;10909;53.590;10.054;2023-04-12T00:42:04;3.17;;;2.40;;
21494;SDS011;10909;53.590;10.054;2023-04-12T00:44:30;2.80;;;2.30;;
21494;SDS011;10909;53.590;10.054;2023-04-12T00:46:59;3.67;;;2.27;;
21494;SDS011;10909;53.590;10.054;2023-04-12T00:49:30;5.07;;;2.50;;
21494;SDS011;10909;53.590;10.054;2023-04-12T00:51:59;2.97;;;2.23;;
21494;SDS011;10909;53.590;10.054;2023-04-12T00:54:28;2.83;;;2.00;;
21494;SDS011;10909;53.590;10.054;2023-04-12T00:56:58;6.90;;;1.80;;
21494;SDS011;10909;53.590;10.054;2023-04-12T00:59:25;2.90;;;2.27;;
21494;SDS011;10909;53.590;10.054;2023-04-12T01:01:52;2.83;;;2.00;;
21494;SDS011;10909;53.590;10.054;2023-04-12T01:04:18;2.77;;;2.20;;
21494;SDS011;10909;53.590;10.054;2023-04-12T01:06:53;2.97;;;2.10;;
21494;SDS011;10909;53.590;10.054;2023-04-12T01:12:24;2.80;;;1.83;;
21494;SDS011;10909;53.590;10.054;2023-04-12T01:15:07;2.40;;;1.90;;
21494;SDS011;10909;53.590;10.054;2023-04-12T01:18:15;3.23;;;2.00;;
21494;SDS011;10909;53.590;10.054;2023-04-12T01:20:53;3.13;;;2.20;;
21494;SDS011;10909;53.590;10.054;2023-04-12T01:23:42;2.33;;;1.93;;
21494;SDS011;10909;53.590;10.054;2023-04-12T01:26:26;3.40;;;2.30;;
21494;SDS011;10909;53.590;10.054;2023-04-12T01:29:00;3.07;;;2.23;;
21494;SDS011;10909;53.590;10.054;2023-04-12T01:31:28;2.87;;;2.17;;
21494;SDS011;10909;53.590;10.054;2023-04-12T01:33:56;2.57;;;2.10;;
21494;SDS011;10909;53.590;10.054;2023-04-12T01:36:24;1.90;;;1.70;;
21494;SDS011;10909;53.590;10.054;2023-04-12T01:38:52;3.17;;;1.97;;
21494;SDS011;10909;53.590;10.054;2023-04-12T01:41:18;4.33;;;2.20;;
21494;SDS011;10909;53.590;10.054;2023-04-12T01:43:45;3.10;;;1.93;;
21494;SDS011;10909;53.590;10.054;2023-04-12T01:46:13;2.00;;;1.80;;
21494;SDS011;10909;53.590;10.054;2023-04-12T01:48:41;2.53;;;1.80;;
21494;SDS011;10909;53.590;10.054;2023-04-12T01:51:17;3.30;;;2.10;;
21494;SDS011;10909;53.590;10.054;2023-04-12T01:53:48;3.00;;;2.00;;
21494;SDS011;10909;53.590;10.054;2023-04-12T01:56:21;3.33;;;1.97;;
21494;SDS011;10909;53.590;10.054;2023-04-12T01:58:50;2.73;;;1.73;;
21494;SDS011;10909;53.590;10.054;2023-04-12T02:01:17;3.30;;;1.90;;
21494;SDS011;10909;53.590;10.054;2023-04-12T02:03:44;3.40;;;1.53;;
21494;SDS011;10909;53.590;10.054;2023-04-12T02:06:13;3.27;;;1.87;;
21494;SDS011;10909;53.590;10.054;2023-04-12T02:08:40;3.33;;;1.80;;
21494;SDS011;10909;53.590;10.054;2023-04-12T02:11:06;2.03;;;1.67;;
21494;SDS011;10909;53.590;10.054;2023-04-12T02:13:33;3.40;;;1.70;;
21494;SDS011;10909;53.590;10.054;2023-04-12T02:15:59;3.47;;;1.67;;
21494;SDS011;10909;53.590;10.054;2023-04-12T02:18:26;3.77;;;1.43;;
21494;SDS011;10909;53.590;10.054;2023-04-12T02:20:52;3.17;;;1.47;;
21494;SDS011;10909;53.590;10.054;2023-04-12T02:23:18;2.97;;;1.60;;
21494;SDS011;10909;53.590;10.054;2023-04-12T02:25:44;3.27;;;1.73;;
21494;SDS011;10909;53.590;10.054;2023-04-12T02:28:10;3.93;;;1.70;;
21494;SDS011;10909;53.590;10.054;2023-04-12T02:30:39;2.83;;;1.60;;
21494;SDS011;10909;53.590;10.054;2023-04-12T02:33:08;1.80;;;1.40;;
21494;SDS011;10909;53.590;10.054;2023-04-12T02:35:33;2.20;;;1.57;;
21494;SDS011;10909;53.590;10.054;2023-04-12T02:38:02;3.03;;;1.50;;
21494;SDS011;10909;53.590;10.054;2023-04-12T02:40:32;3.13;;;1.57;;
21494;SDS011;10909;53.590;10.054;2023-04-12T02:43:07;2.83;;;1.53;;
21494;SDS011;10909;53.590;10.054;2023-04-12T02:45:33;4.50;;;2.03;;
21494;SDS011;10909;53.590;10.054;2023-04-12T02:48:00;3.13;;;1.60;;
21494;SDS011;10909;53.590;10.054;2023-04-12T02:50:27;2.33;;;1.77;;
21494;SDS011;10909;53.590;10.054;2023-04-12T02:52:53;2.03;;;1.50;;
21494;SDS011;10909;53.590;10.054;2023-04-12T02:55:19;3.10;;;2.10;;
21494;SDS011;10909;53.590;10.054;2023-04-12T02:57:44;1.90;;;1.70;;
21494;SDS011;10909;53.590;10.054;2023-04-12T03:00:10;2.63;;;1.70;;
21494;SDS011;10909;53.590;10.054;2023-04-12T03:02:36;5.43;;;1.80;;
21494;SDS011;10909;53.590;10.054;2023-04-12T03:05:03;2.93;;;1.40;;
21494;SDS011;10909;53.590;10.054;2023-04-12T03:07:28;2.57;;;1.70;;
21494;SDS011;10909;53.590;10.054;2023-04-12T03:09:55;2.30;;;1.60;;
21494;SDS011;10909;53.590;10.054;2023-04-12T03:12:21;2.17;;;1.60;;
21494;SDS011;10909;53.590;10.054;2023-04-12T03:14:46;3.33;;;1.50;;
21494;SDS011;10909;53.590;10.054;2023-04-12T03:17:12;2.37;;;1.53;;
21494;SDS011;10909;53.590;10.054;2023-04-12T03:19:38;2.53;;;1.60;;
21494;SDS011;10909;53.590;10.054;2023-04-12T03:22:04;4.13;;;1.67;;
21494;SDS011;10909;53.590;10.054;2023-04-12T03:24:30;1.70;;;1.50;;
21494;SDS011;10909;53.590;10.054;2023-04-12T03:26:58;4.67;;;2.23;;
21494;SDS011;10909;53.590;10.054;2023-04-12T03:29:32;2.83;;;1.60;;
21494;SDS011;10909;53.590;10.054;2023-04-12T03:31:57;3.30;;;1.90;;
21494;SDS011;10909;53.590;10.054;2023-04-12T03:34:24;4.37;;;1.60;;
21494;SDS011;10909;53.590;10.054;2023-04-12T03:36:52;2.90;;;1.70;;
21494;SDS011;10909;53.590;10.054;2023-04-12T03:39:19;1.73;;;1.33;;
21494;SDS011;10909;53.590;10.054;2023-04-12T03:41:44;2.23;;;1.40;;
21494;SDS011;10909;53.590;10.054;2023-04-12T03:44:10;3.73;;;1.50;;
21494;SDS011;10909;53.590;10.054;2023-04-12T03:46:36;2.63;;;1.60;;
21494;SDS011;10909;53.590;10.054;2023-04-12T03:49:02;2.43;;;1.50;;
21494;SDS011;10909;53.590;10.054;2023-04-12T03:51:28;1.70;;;1.60;;
21494;SDS011;10909;53.590;10.054;2023-04-12T03:53:54;2.13;;;1.40;;
21494;SDS011;10909;53.590;10.054;2023-04-12T03:56:20;2.03;;;1.50;;
21494;SDS011;10909;53.590;10.054;2023-04-12T03:58:46;2.57;;;1.30;;
21494;SDS011;10909;53.590;10.054;2023-04-12T04:01:12;2.67;;;1.30;;
21494;SDS011;10909;53.590;10.054;2023-04-12T04:03:40;1.50;;;1.13;;
21494;SDS011;10909;53.590;10.054;2023-04-12T04:06:06;3.10;;;1.30;;
21494;SDS011;10909;53.590;10.054;2023-04-12T04:08:32;5.47;;;1.57;;
21494;SDS011;10909;53.590;10.054;2023-04-12T04:10:58;2.00;;;1.07;;
21494;SDS011;10909;53.590;10.054;2023-04-12T04:13:25;2.70;;;1.40;;
21494;SDS011;10909;53.590;10.054;2023-04-12T04:15:55;1.67;;;1.07;;
21494;SDS011;10909;53.590;10.054;2023-04-12T04:18:28;4.80;;;1.60;;
21494;SDS011;10909;53.590;10.054;2023-04-12T04:20:54;1.43;;;1.10;;
21494;SDS011;10909;53.590;10.054;2023-04-12T04:23:20;3.50;;;1.20;;
21494;SDS011;10909;53.590;10.054;2023-04-12T04:25:47;3.17;;;1.27;;
21494;SDS011;10909;53.590;10.054;2023-04-12T04:28:13;1.80;;;1.50;;
21494;SDS011;10909;53.590;10.054;2023-04-12T04:30:42;2.53;;;1.20;;
21494;SDS011;10909;53.590;10.054;2023-04-12T04:33:10;3.33;;;1.60;;
21494;SDS011;10909;53.590;10.054;2023-04-12T04:35:39;1.57;;;1.00;;
21494;SDS011;10909;53.590;10.054;2023-04-12T04:38:06;3.30;;;1.20;;
21494;SDS011;10909;53.590;10.054;2023-04-12T04:40:32;2.67;;;1.30;;
21494;SDS011;10909;53.590;10.054;2023-04-12T04:43:00;1.90;;;1.30;;
21494;SDS011;10909;53.590;10.054;2023-04-12T04:45:27;1.77;;;1.33;;
21494;SDS011;10909;53.590;10.054;2023-04-12T04:47:53;2.53;;;1.20;;
21494;SDS011;10909;53.590;10.054;2023-04-12T04:50:22;3.40;;;1.10;;
21494;SDS011;10909;53.590;10.054;2023-04-12T04:52:49;1.07;;;0.97;;
21494;SDS011;10909;53.590;10.054;2023-04-12T04:55:15;1.60;;;1.30;;
21494;SDS011;10909;53.590;10.054;2023-04-12T04:57:48;3.23;;;1.23;;
21494;SDS011;10909;53.590;10.054;2023-04-12T05:00:14;2.23;;;1.10;;
21494;SDS011;10909;53.590;10.054;2023-04-12T05:02:41;3.30;;;1.20;;
21494;SDS011;10909;53.590;10.054;2023-04-12T05:05:10;3.43;;;1.40;;
21494;SDS011;10909;53.590;10.054;2023-04-12T05:07:57;2.27;;;1.10;;
21494;SDS011;10909;53.590;10.054;2023-04-12T05:10:23;3.17;;;1.10;;
21494;SDS011;10909;53.590;10.054;2023-04-12T05:12:48;2.00;;;1.30;;
21494;SDS011;10909;53.590;10.054;2023-04-12T05:15:14;1.80;;;1.40;;
21494;SDS011;10909;53.590;10.054;2023-04-12T05:17:40;2.87;;;1.23;;
21494;SDS011;10909;53.590;10.054;2023-04-12T05:20:06;2.87;;;1.37;;
21494;SDS011;10909;53.590;10.054;2023-04-12T05:22:33;1.83;;;1.10;;
21494;SDS011;10909;53.590;10.054;2023-04-12T05:24:59;2.03;;;1.13;;
21494;SDS011;10909;53.590;10.054;2023-04-12T05:27:25;2.30;;;1.10;;
21494;SDS011;10909;53.590;10.054;2023-04-12T05:29:52;2.03;;;1.30;;
21494;SDS011;10909;53.590;10.054;2023-04-12T05:32:18;2.13;;;1.50;;
21494;SDS011;10909;53.590;10.054;2023-04-12T05:34:44;2.57;;;1.30;;
21494;SDS011;10909;53.590;10.054;2023-04-12T05:37:09;1.67;;;1.20;;
21494;SDS011;10909;53.590;10.054;2023-04-12T05:39:35;1.97;;;1.10;;
21494;SDS011;10909;53.590;10.054;2023-04-12T05:42:01;1.50;;;1.10;;
21494;SDS011;10909;53.590;10.054;2023-04-12T05:44:27;1.60;;;1.20;;
21494;SDS011;10909;53.590;10.054;2023-04-12T05:46:53;2.60;;;1.20;;
21494;SDS011;10909;53.590;10.054;2023-04-12T05:49:18;1.30;;;1.17;;
21494;SDS011;10909;53.590;10.054;2023-04-12T05:51:44;3.63;;;1.20;;
21494;SDS011;10909;53.590;10.054;2023-04-12T05:54:11;1.53;;;1.20;;
21494;SDS011;10909;53.590;10.054;2023-04-12T05:56:37;1.63;;;1.27;;
21494;SDS011;10909;53.590;10.054;2023-04-12T05:59:03;1.63;;;1.27;;
21494;SDS011;10909;53.590;10.054;2023-04-12T06:01:29;3.70;;;1.30;;
21494;SDS011;10909;53.590;10.054;2023-04-12T06:03:57;3.17;;;1.23;;
21494;SDS011;10909;53.590;10.054;2023-04-12T06:06:23;2.67;;;1.30;;
21494;SDS011;10909;53.590;10.054;2023-04-12T06:08:54;3.73;;;1.53;;
21494;SDS011;10909;53.590;10.054;2023-04-12T06:11:24;2.27;;;1.20;;
21494;SDS011;10909;53.590;10.054;2023-04-12T06:13:50;3.43;;;1.30;;
21494;SDS011;10909;53.590;10.054;2023-04-12T06:16:16;1.97;;;1.17;;
21494;SDS011;10909;53.590;10.054;2023-04-12T06:18:42;2.57;;;1.23;;
21494;SDS011;10909;53.590;10.054;2023-04-12T06:21:08;5.13;;;1.47;;
21494;SDS011;10909;53.590;10.054;2023-04-12T06:23:34;2.07;;;1.10;;
21494;SDS011;10909;53.590;10.054;2023-04-12T06:26:00;2.00;;;1.33;;
21494;SDS011;10909;53.590;10.054;2023-04-12T06:28:27;1.50;;;1.03;;
21494;SDS011;10909;53.590;10.054;2023-04-12T06:30:53;1.70;;;1.20;;
21494;SDS011;10909;53.590;10.054;2023-04-12T06:33:19;2.87;;;1.50;;
21494;SDS011;10909;53.590;10.054;2023-04-12T06:35:48;3.03;;;1.40;;
21494;SDS011;10909;53.590;10.054;2023-04-12T06:38:15;2.97;;;1.40;;
21494;SDS011;10909;53.590;10.054;2023-04-12T06:40:41;3.07;;;1.60;;
21494;SDS011;10909;53.590;10.054;2023-04-12T06:43:08;2.80;;;1.33;;
21494;SDS011;10909;53.590;10.054;2023-04-12T06:45:34;3.23;;;1.70;;
21494;SDS011;10909;53.590;10.054;2023-04-12T06:48:00;4.20;;;2.30;;
21494;SDS011;10909;53.590;10.054;2023-04-12T06:50:26;3.80;;;1.90;;
21494;SDS011;10909;53.590;10.054;2023-04-12T06:52:52;3.97;;;2.00;;
21494;SDS011;10909;53.590;10.054;2023-04-12T06:55:18;2.90;;;1.90;;
21494;SDS011;10909;53.590;10.054;2023-04-12T06:57:44;2.80;;;1.60;;
21494;SDS011;10909;53.590;10.054;2023-04-12T07:00:10;3.07;;;1.93;;
21494;SDS011;10909;53.590;10.054;2023-04-12T07:02:36;2.53;;;1.57;;
21494;SDS011;10909;53.590;10.054;2023-04-12T07:05:02;2.73;;;1.70;;
21494;SDS011;10909;53.590;10.054;2023-04-12T07:07:29;3.20;;;2.00;;
21494;SDS011;10909;53.590;10.054;2023-04-12T07:09:55;3.60;;;1.80;;
21494;SDS011;10909;53.590;10.054;2023-04-12T07:12:20;5.00;;;2.00;;
21494;SDS011;10909;53.590;10.054;2023-04-12T07:14:46;1.70;;;1.60;;
21494;SDS011;10909;53.590;10.054;2023-04-12T07:17:12;2.80;;;2.07;;
21494;SDS011;10909;53.590;10.054;2023-04-12T07:19:38;2.70;;;1.87;;
21494;SDS011;10909;53.590;10.054;2023-04-12T07:22:05;2.37;;;1.60;;
21494;SDS011;10909;53.590;10.054;2023-04-12T07:24:31;3.97;;;1.73;;
21494;SDS011;10909;53.590;10.054;2023-04-12T07:26:57;2.17;;;1.60;;
21494;SDS011;10909;53.590;10.054;2023-04-12T07:29:23;1.73;;;1.50;;
21494;SDS011;10909;53.590;10.054;2023-04-12T07:31:48;2.57;;;1.60;;
21494;SDS011;10909;53.590;10.054;2023-04-12T07:34:14;2.00;;;1.60;;
21494;SDS011;10909;53.590;10.054;2023-04-12T07:36:40;1.90;;;1.50;;
21494;SDS011;10909;53.590;10.054;2023-04-12T07:39:07;4.83;;;1.90;;
21494;SDS011;10909;53.590;10.054;2023-04-12T07:41:36;2.00;;;1.60;;
21494;SDS011;10909;53.590;10.054;2023-04-12T07:44:10;2.63;;;1.80;;
21494;SDS011;10909;53.590;10.054;2023-04-12T07:46:36;3.37;;;1.53;;
21494;SDS011;10909;53.590;10.054;2023-04-12T07:49:02;2.17;;;1.70;;
21494;SDS011;10909;53.590;10.054;2023-04-12T07:51:28;2.23;;;1.70;;
21494;SDS011;10909;53.590;10.054;2023-04-12T07:53:55;2.47;;;1.70;;
21494;SDS011;10909;53.590;10.054;2023-04-12T07:56:20;2.97;;;1.57;;
21494;SDS011;10909;53.590;10.054;2023-04-12T07:58:46;2.43;;;1.70;;
21494;SDS011;10909;53.590;10.054;2023-04-12T08:01:13;2.73;;;1.50;;
21494;SDS011;10909;53.590;10.054;2023-04-12T08:03:40;2.23;;;1.60;;
21494;SDS011;10909;53.590;10.054;2023-04-12T08:06:06;3.53;;;1.77;;
21494;SDS011;10909;53.590;10.054;2023-04-12T08:08:32;2.97;;;1.90;;
21494;SDS011;10909;53.590;10.054;2023-04-12T08:10:58;3.37;;;1.43;;
21494;SDS011;10909;53.590;10.054;2023-04-12T08:13:26;3.27;;;1.70;;
21494;SDS011;10909;53.590;10.054;2023-04-12T08:15:52;2.87;;;1.67;;
21494;SDS011;10909;53.590;10.054;2023-04-12T08:18:18;1.70;;;1.43;;
21494;SDS011;10909;53.590;10.054;2023-04-12T08:20:43;2.20;;;1.70;;
21494;SDS011;10909;53.590;10.054;2023-04-12T08:23:10;2.57;;;1.63;;
21494;SDS011;10909;53.590;10.054;2023-04-12T08:25:36;2.03;;;1.50;;
21494;SDS011;10909;53.590;10.054;2023-04-12T08:28:02;1.80;;;1.50;;
21494;SDS011;10909;53.590;10.054;2023-04-12T08:30:28;2.13;;;1.60;;
21494;SDS011;10909;53.590;10.054;2023-04-12T08:32:54;2.53;;;1.77;;
21494;SDS011;10909;53.590;10.054;2023-04-12T08:35:20;3.10;;;1.90;;
21494;SDS011;10909;53.590;10.054;2023-04-12T08:37:47;2.53;;;1.70;;
21494;SDS011;10909;53.590;10.054;2023-04-12T08:40:13;5.57;;;1.87;;
21494;SDS011;10909;53.590;10.054;2023-04-12T08:42:39;2.97;;;1.70;;
21494;SDS011;10909;53.590;10.054;2023-04-12T08:45:05;3.40;;;1.80;;
21494;SDS011;10909;53.590;10.054;2023-04-12T08:47:36;2.80;;;1.70;;
21494;SDS011;10909;53.590;10.054;2023-04-12T08:50:07;2.00;;;1.47;;
21494;SDS011;10909;53.590;10.054;2023-04-12T08:52:37;5.00;;;1.70;;
21494;SDS011;10909;53.590;10.054;2023-04-12T08:55:05;2.63;;;1.60;;
21494;SDS011;10909;53.590;10.054;2023-04-12T08:57:32;2.57;;;1.80;;
21494;SDS011;10909;53.590;10.054;2023-04-12T09:00:00;4.47;;;1.83;;
21494;SDS011;10909;53.590;10.054;2023-04-12T09:02:27;3.63;;;2.30;;
21494;SDS011;10909;53.590;10.054;2023-04-12T09:04:54;3.53;;;2.20;;
21494;SDS011;10909;53.590;10.054;2023-04-12T09:07:20;2.97;;;2.20;;
21494;SDS011;10909;53.590;10.054;2023-04-12T09:09:47;3.43;;;2.30;;
21494;SDS011;10909;53.590;10.054;2023-04-12T09:12:14;3.43;;;2.60;;
21494;SDS011;10909;53.590;10.054;2023-04-12T09:14:41;5.40;;;2.50;;
21494;SDS011;10909;53.590;10.054;2023-04-12T09:17:23;3.17;;;2.17;;
21494;SDS011;10909;53.590;10.054;2023-04-12T09:19:51;3.27;;;2.17;;
21494;SDS011;10909;53.590;10.054;2023-04-12T09:22:17;2.53;;;1.90;;
21494;SDS011;10909;53.590;10.054;2023-04-12T09:24:47;2.60;;;1.70;;
21494;SDS011;10909;53.590;10.054;2023-04-12T09:27:14;3.17;;;1.83;;
21494;SDS011;10909;53.590;10.054;2023-04-12T09:29:40;2.70;;;1.63;;
21494;SDS011;10909;53.590;10.054;2023-04-12T09:32:07;2.83;;;1.70;;
21494;SDS011;10909;53.590;10.054;2023-04-12T09:34:34;1.53;;;1.40;;
21494;SDS011;10909;53.590;10.054;2023-04-12T09:37:15;2.13;;;1.50;;
21494;SDS011;10909;53.590;10.054;2023-04-12T09:39:41;3.53;;;1.70;;
21494;SDS011;10909;53.590;10.054;2023-04-12T09:42:08;3.30;;;1.93;;
21494;SDS011;10909;53.590;10.054;2023-04-12T09:44:35;2.70;;;1.50;;
21494;SDS011;10909;53.590;10.054;2023-04-12T09:47:01;3.27;;;1.63;;
21494;SDS011;10909;53.590;10.054;2023-04-12T09:49:37;3.92;;;1.42;;
21494;SDS011;10909;53.590;10.054;2023-04-12T09:52:04;4.97;;;2.10;;
21494;SDS011;10909;53.590;10.054;2023-04-12T09:54:32;2.30;;;1.60;;
21494;SDS011;10909;53.590;10.054;2023-04-12T09:57:05;2.87;;;1.57;;
21494;SDS011;10909;53.590;10.054;2023-04-12T09:59:33;2.30;;;1.70;;
21494;SDS011;10909;53.590;10.054;2023-04-12T10:02:02;3.45;;;1.80;;
21494;SDS011;10909;53.590;10.054;2023-04-12T10:04:40;1.37;;;1.27;;
21494;SDS011;10909;53.590;10.054;2023-04-12T10:07:06;3.13;;;1.63;;
21494;SDS011;10909;53.590;10.054;2023-04-12T10:09:39;2.03;;;1.63;;
21494;SDS011;10909;53.590;10.054;2023-04-12T10:12:05;2.65;;;1.73;;
21494;SDS011;10909;53.590;10.054;2023-04-12T10:14:32;2.27;;;1.60;;
21494;SDS011;10909;53.590;10.054;2023-04-12T10:16:59;2.03;;;1.50;;
21494;SDS011;10909;53.590;10.054;2023-04-12T10:19:28;3.38;;;1.45;;
21494;SDS011;10909;53.590;10.054;2023-04-12T10:21:56;2.67;;;1.60;;
21494;SDS011;10909;53.590;10.054;2023-04-12T10:24:26;2.15;;;1.77;;
21494;SDS011;10909;53.590;10.054;2023-04-12T10:26:53;3.07;;;2.00;;
21494;SDS011;10909;53.590;10.054;2023-04-12T10:32:43;2.60;;;1.50;;
21494;SDS011;10909;53.590;10.054;2023-04-12T10:34:54;2.33;;;1.75;;
21494;SDS011;10909;53.590;10.054;2023-04-12T10:37:21;2.65;;;1.33;;
21494;SDS011;10909;53.590;10.054;2023-04-12T10:40:27;3.42;;;1.70;;
21494;SDS011;10909;53.590;10.054;2023-04-12T10:45:50;3.05;;;1.20;;
21494;SDS011;10909;53.590;10.054;2023-04-12T10:48:29;3.15;;;1.65;;
21494;SDS011;10909;53.590;10.054;2023-04-12T10:53:49;2.38;;;1.60;;
21494;SDS011;10909;53.590;10.054;2023-04-12T10:58:57;2.80;;;1.63;;
21494;SDS011;10909;53.590;10.054;2023-04-12T11:01:24;3.72;;;1.45;;
21494;SDS011;10909;53.590;10.054;2023-04-12T11:06:47;3.43;;;1.60;;
21494;SDS011;10909;53.590;10.054;2023-04-12T11:09:45;2.80;;;1.60;;
21494;SDS011;10909;53.590;10.054;2023-04-12T11:12:13;2.53;;;1.83;;
21494;SDS011;10909;53.590;10.054;2023-04-12T11:14:50;4.63;;;1.87;;
21494;SDS011;10909;53.590;10.054;2023-04-12T11:22:09;3.10;;;2.00;;
21494;SDS011;10909;53.590;10.054;2023-04-12T11:24:36;3.47;;;2.00;;
21494;SDS011;10909;53.590;10.054;2023-04-12T11:27:03;4.00;;;1.77;;
21494;SDS011;10909;53.590;10.054;2023-04-12T11:29:30;4.67;;;2.10;;
21494;SDS011;10909;53.590;10.054;2023-04-12T11:32:02;3.40;;;1.70;;
21494;SDS011;10909;53.590;10.054;2023-04-12T11:34:33;2.73;;;1.70;;
21494;SDS011;10909;53.590;10.054;2023-04-12T11:36:59;3.10;;;1.70;;
21494;SDS011;10909;53.590;10.054;2023-04-12T11:39:30;3.30;;;1.93;;
21494;SDS011;10909;53.590;10.054;2023-04-12T11:41:56;3.13;;;2.20;;
21494;SDS011;10909;53.590;10.054;2023-04-12T11:44:23;3.77;;;2.33;;
21494;SDS011;10909;53.590;10.054;2023-04-12T11:46:52;3.00;;;1.90;;
21494;SDS011;10909;53.590;10.054;2023-04-12T11:49:19;2.17;;;1.90;;
21494;SDS011;10909;53.590;10.054;2023-04-12T11:51:47;3.17;;;2.10;;
21494;SDS011;10909;53.590;10.054;2023-04-12T11:54:13;4.73;;;2.03;;
21494;SDS011;10909;53.590;10.054;2023-04-12T11:56:40;2.40;;;1.90;;
21494;SDS011;10909;53.590;10.054;2023-04-12T11:59:06;3.43;;;1.80;;
21494;SDS011;10909;53.590;10.054;2023-04-12T12:01:35;2.30;;;1.90;;
21494;SDS011;10909;53.590;10.054;2023-04-12T12:04:02;4.23;;;2.20;;
21494;SDS011;10909;53.590;10.054;2023-04-12T12:06:28;2.73;;;2.00;;
21494;SDS011;10909;53.590;10.054;2023-04-12T12:08:55;3.30;;;2.10;;
21494;SDS011;10909;53.590;10.054;2023-04-12T12:11:22;2.77;;;1.90;;
21494;SDS011;10909;53.590;10.054;2023-04-12T12:13:52;3.43;;;1.87;;
21494;SDS011;10909;53.590;10.054;2023-04-12T12:16:22;1.97;;;1.50;;
21494;SDS011;10909;53.590;10.054;2023-04-12T12:18:50;3.00;;;1.90;;
21494;SDS011;10909;53.590;10.054;2023-04-12T12:21:16;2.67;;;1.93;;
21494;SDS011;10909;53.590;10.054;2023-04-12T12:23:43;2.67;;;1.70;;
21494;SDS011;10909;53.590;10.054;2023-04-12T12:26:13;1.80;;;1.43;;
21494;SDS011;10909;53.590;10.054;2023-04-12T12:28:54;5.20;;;2.00;;
21494;SDS011;10909;53.590;10.054;2023-04-12T12:31:24;2.03;;;1.67;;
21494;SDS011;10909;53.590;10.054;2023-04-12T12:34:01;5.23;;;2.20;;
21494;SDS011;10909;53.590;10.054;2023-04-12T12:36:42;4.20;;;2.03;;
21494;SDS011;10909;53.590;10.054;2023-04-12T12:39:09;2.40;;;1.80;;
21494;SDS011;10909;53.590;10.054;2023-04-12T12:41:35;1.90;;;1.50;;
21494;SDS011;10909;53.590;10.054;2023-04-12T12:44:02;5.13;;;1.83;;
21494;SDS011;10909;53.590;10.054;2023-04-12T12:46:28;2.90;;;1.80;;
21494;SDS011;10909;53.590;10.054;2023-04-12T12:48:54;2.13;;;1.67;;
21494;SDS011;10909;53.590;10.054;2023-04-12T12:51:20;2.83;;;1.93;;
21494;SDS011;10909;53.590;10.054;2023-04-12T12:53:46;3.27;;;1.83;;
21494;SDS011;10909;53.590;10.054;2023-04-12T12:56:12;2.97;;;1.50;;
21494;SDS011;10909;53.590;10.054;2023-04-12T12:58:39;2.43;;;1.70;;
21494;SDS011;10909;53.590;10.054;2023-04-12T13:01:06;2.50;;;1.73;;
21494;SDS011;10909;53.590;10.054;2023-04-12T13:03:32;3.07;;;1.50;;
21494;SDS011;10909;53.590;10.054;2023-04-12T13:05:58;2.23;;;1.60;;
21494;SDS011;10909;53.590;10.054;2023-04-12T13:08:25;1.80;;;1.40;;
21494;SDS011;10909;53.590;10.054;2023-04-12T13:10:51;3.00;;;2.07;;
21494;SDS011;10909;53.590;10.054;2023-04-12T13:13:18;2.30;;;1.83;;
21494;SDS011;10909;53.590;10.054;2023-04-12T13:15:44;2.17;;;1.80;;
21494;SDS011;10909;53.590;10.054;2023-04-12T13:18:15;3.63;;;1.97;;
21494;SDS011;10909;53.590;10.054;2023-04-12T13:20:42;2.40;;;1.87;;
21494;SDS011;10909;53.590;10.054;2023-04-12T13:23:08;2.83;;;1.90;;
21494;SDS011;10909;53.590;10.054;2023-04-12T13:25:34;2.60;;;1.63;;
21494;SDS011;10909;53.590;10.054;2023-04-12T13:28:01;2.37;;;1.73;;
21494;SDS011;10909;53.590;10.054;2023-04-12T13:30:27;1.70;;;1.50;;
21494;SDS011;10909;53.590;10.054;2023-04-12T13:32:53;1.90;;;1.47;;
21494;SDS011;10909;53.590;10.054;2023-04-12T13:35:19;1.87;;;1.60;;
21494;SDS011;10909;53.590;10.054;2023-04-12T13:37:45;1.57;;;1.33;;
21494;SDS011;10909;53.590;10.054;2023-04-12T13:40:11;1.70;;;1.27;;
21494;SDS011;10909;53.590;10.054;2023-04-12T13:42:37;1.77;;;1.50;;
21494;SDS011;10909;53.590;10.054;2023-04-12T13:45:03;1.90;;;1.43;;
21494;SDS011;10909;53.590;10.054;2023-04-12T13:47:29;2.17;;;1.43;;
21494;SDS011;10909;53.590;10.054;2023-04-12T13:49:57;1.50;;;1.20;;
21494;SDS011;10909;53.590;10.054;2023-04-12T13:52:25;1.77;;;1.30;;
21494;SDS011;10909;53.590;10.054;2023-04-12T13:54:51;2.57;;;1.50;;
21494;SDS011;10909;53.590;10.054;2023-04-12T13:57:17;1.70;;;1.10;;
21494;SDS011;10909;53.590;10.054;2023-04-12T13:59:43;1.97;;;1.37;;
21494;SDS011;10909;53.590;10.054;2023-04-12T14:02:08;2.47;;;1.30;;
21494;SDS011;10909;53.590;10.054;2023-04-12T14:04:34;1.87;;;1.10;;
21494;SDS011;10909;53.590;10.054;2023-04-12T14:07:01;1.57;;;1.23;;
21494;SDS011;10909;53.590;10.054;2023-04-12T14:09:30;1.70;;;1.50;;
21494;SDS011;10909;53.590;10.054;2023-04-12T14:11:57;3.33;;;1.30;;
21494;SDS011;10909;53.590;10.054;2023-04-12T14:14:25;1.83;;;1.20;;
21494;SDS011;10909;53.590;10.054;2023-04-12T14:16:52;2.47;;;1.50;;
21494;SDS011;10909;53.590;10.054;2023-04-12T14:19:21;1.60;;;1.40;;
21494;SDS011;10909;53.590;10.054;2023-04-12T14:21:47;2.00;;;1.27;;
21494;SDS011;10909;53.590;10.054;2023-04-12T14:24:14;3.47;;;1.50;;
21494;SDS011;10909;53.590;10.054;2023-04-12T14:26:43;1.60;;;1.40;;
21494;SDS011;10909;53.590;10.054;2023-04-12T14:29:09;2.73;;;1.50;;
21494;SDS011;10909;53.590;10.054;2023-04-12T14:31:35;1.93;;;1.43;;
21494;SDS011;10909;53.590;10.054;2023-04-12T14:34:02;1.80;;;1.20;;
21494;SDS011;10909;53.590;10.054;2023-04-12T14:36:28;1.63;;;1.20;;
21494;SDS011;10909;53.590;10.054;2023-04-12T14:38:55;3.27;;;1.70;;
21494;SDS011;10909;53.590;10.054;2023-04-12T14:41:20;3.03;;;1.50;;
21494;SDS011;10909;53.590;10.054;2023-04-12T14:43:46;2.90;;;1.53;;
21494;SDS011;10909;53.590;10.054;2023-04-12T14:46:12;2.13;;;1.50;;
21494;SDS011;10909;53.590;10.054;2023-04-12T14:48:40;2.70;;;1.70;;
21494;SDS011;10909;53.590;10.054;2023-04-12T14:51:06;2.03;;;1.33;;
21494;SDS011;10909;53.590;10.054;2023-04-12T14:53:32;3.63;;;2.20;;
21494;SDS011;10909;53.590;10.054;2023-04-12T14:55:58;1.70;;;1.50;;
21494;SDS011;10909;53.590;10.054;2023-04-12T14:58:30;2.50;;;1.70;;